sensor_id;sensor_type;location;lat;lon;timestamp;pressure;altitude;pressure_sealevel;temperature;humidity
62402;BME280;48440;51.224;22.506;2023-01-25T00:00:20;101168.78;;;2.56;83.52
62402;BME280;48440;51.224;22.506;2023-01-25T00:02:45;101168.78;;;2.56;83.09
62402;BME280;48440;51.224;22.506;2023-01-25T00:05:11;101170.63;;;2.56;82.83
62402;BME280;48440;51.224;22.506;2023-01-25T00:07:36;101165.28;;;2.56;82.89
62402;BME280;48440;51.224;22.506;2023-01-25T00:10:02;101161.75;;;2.55;82.52
62402;BME280;48440;51.224;22.506;2023-01-25T00:12:27;101168.28;;;2.53;82.68
62402;BME280;48440;51.224;22.506;2023-01-25T00:14:53;101166.28;;;2.55;82.83
62402;BME280;48440;51.224;22.506;2023-01-25T00:17:18;101167.13;;;2.55;82.85
62402;BME280;48440;51.224;22.506;2023-01-25T00:19:44;101164.13;;;2.58;83.26
62402;BME280;48440;51.224;22.506;2023-01-25T00:22:09;101168.28;;;2.61;82.62
62402;BME280;48440;51.224;22.506;2023-01-25T00:24:34;101159.59;;;2.59;82.99
62402;BME280;48440;51.224;22.506;2023-01-25T00:27:01;101160.44;;;2.59;82.55
62402;BME280;48440;51.224;22.506;2023-01-25T00:29:27;101151.38;;;2.60;82.71
62402;BME280;48440;51.224;22.506;2023-01-25T00:39:33;101146.34;;;2.57;81.97
62402;BME280;48440;51.224;22.506;2023-01-25T00:41:59;101149.19;;;2.56;82.14
62402;BME280;48440;51.224;22.506;2023-01-25T00:44:24;101150.03;;;2.56;82.47
62402;BME280;48440;51.224;22.506;2023-01-25T00:46:49;101145.50;;;2.57;82.55
62402;BME280;48440;51.224;22.506;2023-01-25T00:49:20;101145.66;;;2.55;82.36
62402;BME280;48440;51.224;22.506;2023-01-25T00:51:47;101148.88;;;2.59;82.51
62402;BME280;48440;51.224;22.506;2023-01-25T00:54:13;101137.47;;;2.57;81.75
62402;BME280;48440;51.224;22.506;2023-01-25T00:56:38;101144.69;;;2.56;82.06
62402;BME280;48440;51.224;22.506;2023-01-25T00:59:04;101140.63;;;2.52;81.87
62402;BME280;48440;51.224;22.506;2023-01-25T01:01:30;101139.94;;;2.50;82.34
62402;BME280;48440;51.224;22.506;2023-01-25T01:03:55;101139.09;;;2.50;83.03
62402;BME280;48440;51.224;22.506;2023-01-25T01:06:21;101139.09;;;2.50;82.98
62402;BME280;48440;51.224;22.506;2023-01-25T01:08:46;101134.72;;;2.49;82.78
62402;BME280;48440;51.224;22.506;2023-01-25T01:11:12;101134.06;;;2.47;82.70
62402;BME280;48440;51.224;22.506;2023-01-25T01:13:38;101123.16;;;2.48;82.72
62402;BME280;48440;51.224;22.506;2023-01-25T01:16:06;101120.03;;;2.53;82.71
62402;BME280;48440;51.224;22.506;2023-01-25T01:18:40;101115.97;;;2.49;82.75
62402;BME280;48440;51.224;22.506;2023-01-25T01:21:07;101121.66;;;2.46;82.62
62402;BME280;48440;51.224;22.506;2023-01-25T01:23:33;101120.66;;;2.47;82.88
62402;BME280;48440;51.224;22.506;2023-01-25T01:26:00;101113.59;;;2.46;82.64
62402;BME280;48440;51.224;22.506;2023-01-25T01:28:29;101109.56;;;2.42;82.89
62402;BME280;48440;51.224;22.506;2023-01-25T01:31:05;101111.09;;;2.44;82.71
62402;BME280;48440;51.224;22.506;2023-01-25T01:33:31;101115.75;;;2.42;83.00
62402;BME280;48440;51.224;22.506;2023-01-25T01:35:56;101107.72;;;2.42;83.02
62402;BME280;48440;51.224;22.506;2023-01-25T01:38:22;101104.34;;;2.40;83.01
62402;BME280;48440;51.224;22.506;2023-01-25T01:40:48;101104.66;;;2.37;83.12
62402;BME280;48440;51.224;22.506;2023-01-25T01:43:22;101106.19;;;2.39;82.58
62402;BME280;48440;51.224;22.506;2023-01-25T01:51:38;101088.81;;;2.44;82.86
62402;BME280;48440;51.224;22.506;2023-01-25T01:56:47;101086.81;;;2.46;82.51
62402;BME280;48440;51.224;22.506;2023-01-25T01:59:15;101085.28;;;2.43;81.93
62402;BME280;48440;51.224;22.506;2023-01-25T02:01:42;101091.81;;;2.41;81.91
62402;BME280;48440;51.224;22.506;2023-01-25T02:04:09;101084.44;;;2.43;81.63
62402;BME280;48440;51.224;22.506;2023-01-25T02:06:43;101074.72;;;2.42;81.05
62402;BME280;48440;51.224;22.506;2023-01-25T02:09:10;101086.44;;;2.41;80.88
62402;BME280;48440;51.224;22.506;2023-01-25T02:11:36;101078.41;;;2.41;81.45
62402;BME280;48440;51.224;22.506;2023-01-25T02:14:02;101084.75;;;2.39;81.59
62402;BME280;48440;51.224;22.506;2023-01-25T02:16:28;101073.34;;;2.37;81.49
62402;BME280;48440;51.224;22.506;2023-01-25T02:18:56;101080.25;;;2.40;81.36
62402;BME280;48440;51.224;22.506;2023-01-25T02:21:23;101071.34;;;2.39;81.73
62402;BME280;48440;51.224;22.506;2023-01-25T02:26:42;101074.03;;;2.39;81.90
62402;BME280;48440;51.224;22.506;2023-01-25T02:29:08;101077.56;;;2.40;82.21
62402;BME280;48440;51.224;22.506;2023-01-25T02:31:35;101075.72;;;2.41;82.01
62402;BME280;48440;51.224;22.506;2023-01-25T02:34:00;101065.31;;;2.37;82.62
62402;BME280;48440;51.224;22.506;2023-01-25T02:36:28;101070.84;;;2.36;82.57
62402;BME280;48440;51.224;22.506;2023-01-25T02:38:58;101065.31;;;2.37;83.06
62402;BME280;48440;51.224;22.506;2023-01-25T02:41:36;101068.16;;;2.36;82.92
62402;BME280;48440;51.224;22.506;2023-01-25T02:44:05;101062.13;;;2.34;83.00
62402;BME280;48440;51.224;22.506;2023-01-25T02:46:34;101058.44;;;2.35;83.46
62402;BME280;48440;51.224;22.506;2023-01-25T02:49:01;101065.63;;;2.34;83.31
62402;BME280;48440;51.224;22.506;2023-01-25T02:51:29;101057.44;;;2.36;83.11
62402;BME280;48440;51.224;22.506;2023-01-25T02:53:55;101063.47;;;2.38;83.12
62402;BME280;48440;51.224;22.506;2023-01-25T02:56:21;101066.31;;;2.36;82.93
62402;BME280;48440;51.224;22.506;2023-01-25T02:58:47;101063.63;;;2.36;83.07
62402;BME280;48440;51.224;22.506;2023-01-25T03:01:13;101056.44;;;2.37;83.09
62402;BME280;48440;51.224;22.506;2023-01-25T03:03:39;101058.44;;;2.35;83.29
62402;BME280;48440;51.224;22.506;2023-01-25T03:06:05;101053.25;;;2.33;83.44
62402;BME280;48440;51.224;22.506;2023-01-25T03:08:31;101047.22;;;2.31;83.07
62402;BME280;48440;51.224;22.506;2023-01-25T03:10:58;101050.91;;;2.30;83.23
62402;BME280;48440;51.224;22.506;2023-01-25T03:13:25;101055.94;;;2.33;83.37
62402;BME280;48440;51.224;22.506;2023-01-25T03:15:51;101051.22;;;2.35;83.09
62402;BME280;48440;51.224;22.506;2023-01-25T03:18:17;101052.44;;;2.33;83.09
62402;BME280;48440;51.224;22.506;2023-01-25T03:20:42;101050.75;;;2.32;83.16
62402;BME280;48440;51.224;22.506;2023-01-25T03:23:07;101046.38;;;2.31;82.52
62402;BME280;48440;51.224;22.506;2023-01-25T03:25:33;101048.72;;;2.34;82.85
62402;BME280;48440;51.224;22.506;2023-01-25T03:27:58;101036.16;;;2.34;82.85
62402;BME280;48440;51.224;22.506;2023-01-25T03:30:24;101039.88;;;2.33;82.25
62402;BME280;48440;51.224;22.506;2023-01-25T03:32:49;101030.63;;;2.28;82.65
62402;BME280;48440;51.224;22.506;2023-01-25T03:35:15;101033.47;;;2.26;82.32
62402;BME280;48440;51.224;22.506;2023-01-25T03:37:40;101036.97;;;2.27;82.30
62402;BME280;48440;51.224;22.506;2023-01-25T03:40:06;101031.78;;;2.25;81.80
62402;BME280;48440;51.224;22.506;2023-01-25T03:42:32;101036.44;;;2.23;81.99
62402;BME280;48440;51.224;22.506;2023-01-25T03:44:58;101032.78;;;2.24;81.74
62402;BME280;48440;51.224;22.506;2023-01-25T03:47:23;101029.41;;;2.22;81.60
62402;BME280;48440;51.224;22.506;2023-01-25T03:49:48;101026.88;;;2.21;81.33
62402;BME280;48440;51.224;22.506;2023-01-25T03:52:14;101026.88;;;2.21;81.20
62402;BME280;48440;51.224;22.506;2023-01-25T03:54:39;101024.69;;;2.16;81.04
62402;BME280;48440;51.224;22.506;2023-01-25T03:57:05;101020.31;;;2.15;81.26
62402;BME280;48440;51.224;22.506;2023-01-25T03:59:30;101018.63;;;2.14;80.51
62402;BME280;48440;51.224;22.506;2023-01-25T04:01:55;101016.81;;;2.15;81.24
62402;BME280;48440;51.224;22.506;2023-01-25T04:04:21;101015.44;;;2.11;81.22
62402;BME280;48440;51.224;22.506;2023-01-25T04:06:46;101011.06;;;2.10;80.93
62402;BME280;48440;51.224;22.506;2023-01-25T04:09:12;101010.91;;;2.11;81.31
62402;BME280;48440;51.224;22.506;2023-01-25T04:11:39;101004.03;;;2.09;81.03
62402;BME280;48440;51.224;22.506;2023-01-25T04:14:04;101008.75;;;2.07;81.29
62402;BME280;48440;51.224;22.506;2023-01-25T04:16:29;100999.72;;;2.08;81.37
62402;BME280;48440;51.224;22.506;2023-01-25T04:18:55;100999.03;;;2.06;80.90
62402;BME280;48440;51.224;22.506;2023-01-25T04:21:21;100998.88;;;2.07;81.06
62402;BME280;48440;51.224;22.506;2023-01-25T04:23:46;101005.22;;;2.06;81.53
62402;BME280;48440;51.224;22.506;2023-01-25T04:26:12;100997.19;;;2.06;81.27
62402;BME280;48440;51.224;22.506;2023-01-25T04:28:39;101006.06;;;2.07;81.19
62402;BME280;48440;51.224;22.506;2023-01-25T04:31:04;101008.22;;;2.03;80.97
62402;BME280;48440;51.224;22.506;2023-01-25T04:33:30;101004.22;;;2.07;81.22
62402;BME280;48440;51.224;22.506;2023-01-25T04:35:56;101004.88;;;2.09;81.40
62402;BME280;48440;51.224;22.506;2023-01-25T04:38:21;101004.22;;;2.07;80.83
62402;BME280;48440;51.224;22.506;2023-01-25T04:40:47;101006.91;;;2.07;81.20
62402;BME280;48440;51.224;22.506;2023-01-25T04:43:17;100985.63;;;2.06;80.82
62402;BME280;48440;51.224;22.506;2023-01-25T04:45:43;100992.66;;;2.07;80.98
62402;BME280;48440;51.224;22.506;2023-01-25T04:48:10;101002.84;;;2.03;81.05
62402;BME280;48440;51.224;22.506;2023-01-25T04:50:37;100994.13;;;2.01;81.14
62402;BME280;48440;51.224;22.506;2023-01-25T04:53:04;100991.31;;;2.02;80.91
62402;BME280;48440;51.224;22.506;2023-01-25T04:55:29;100993.97;;;2.02;81.34
62402;BME280;48440;51.224;22.506;2023-01-25T04:57:55;101000.03;;;2.04;81.03
62402;BME280;48440;51.224;22.506;2023-01-25T05:00:21;100989.63;;;2.01;81.00
62402;BME280;48440;51.224;22.506;2023-01-25T05:02:46;100989.63;;;2.01;81.11
62402;BME280;48440;51.224;22.506;2023-01-25T05:05:12;100991.78;;;1.98;80.83
62402;BME280;48440;51.224;22.506;2023-01-25T05:07:38;100991.47;;;2.01;81.35
62402;BME280;48440;51.224;22.506;2023-01-25T05:10:04;100989.47;;;2.03;80.72
62402;BME280;48440;51.224;22.506;2023-01-25T05:12:30;100984.44;;;2.00;80.76
62402;BME280;48440;51.224;22.506;2023-01-25T05:14:56;100986.25;;;1.99;80.59
62402;BME280;48440;51.224;22.506;2023-01-25T05:17:21;100993.97;;;2.02;80.11
62402;BME280;48440;51.224;22.506;2023-01-25T05:19:47;100987.09;;;2.00;79.93
62402;BME280;48440;51.224;22.506;2023-01-25T05:22:14;100996.81;;;2.01;79.96
62402;BME280;48440;51.224;22.506;2023-01-25T05:24:39;100995.50;;;2.05;79.96
62402;BME280;48440;51.224;22.506;2023-01-25T05:27:11;100991.31;;;2.02;79.80
62402;BME280;48440;51.224;22.506;2023-01-25T05:29:42;100992.00;;;2.04;79.22
62402;BME280;48440;51.224;22.506;2023-01-25T05:34:38;100986.09;;;2.01;79.14
62402;BME280;48440;51.224;22.506;2023-01-25T05:37:06;100986.94;;;2.01;79.53
62402;BME280;48440;51.224;22.506;2023-01-25T05:39:32;100982.28;;;2.03;79.80
62402;BME280;48440;51.224;22.506;2023-01-25T05:41:58;100985.25;;;2.00;79.92
62402;BME280;48440;51.224;22.506;2023-01-25T05:44:23;100990.63;;;2.00;80.33
62402;BME280;48440;51.224;22.506;2023-01-25T05:46:49;100984.44;;;2.00;80.42
62402;BME280;48440;51.224;22.506;2023-01-25T05:49:15;100983.75;;;1.98;80.65
62402;BME280;48440;51.224;22.506;2023-01-25T05:51:41;100985.94;;;2.02;80.66
62402;BME280;48440;51.224;22.506;2023-01-25T05:54:10;100990.16;;;2.05;80.41
62402;BME280;48440;51.224;22.506;2023-01-25T05:56:37;100988.78;;;2.01;80.16
62402;BME280;48440;51.224;22.506;2023-01-25T05:59:02;100989.09;;;1.98;80.01
62402;BME280;48440;51.224;22.506;2023-01-25T06:01:28;100989.25;;;1.96;80.25
62402;BME280;48440;51.224;22.506;2023-01-25T06:03:54;100987.56;;;1.95;80.57
62402;BME280;48440;51.224;22.506;2023-01-25T06:06:20;100990.09;;;1.97;80.30
62402;BME280;48440;51.224;22.506;2023-01-25T06:08:46;100983.91;;;1.96;80.81
62402;BME280;48440;51.224;22.506;2023-01-25T06:11:17;100986.72;;;1.95;80.51
62402;BME280;48440;51.224;22.506;2023-01-25T06:13:44;100991.09;;;1.96;80.65
62402;BME280;48440;51.224;22.506;2023-01-25T06:16:10;100984.91;;;1.95;80.00
62402;BME280;48440;51.224;22.506;2023-01-25T06:18:35;100978.69;;;1.95;79.63
62402;BME280;48440;51.224;22.506;2023-01-25T06:21:02;100979.69;;;1.94;79.68
62402;BME280;48440;51.224;22.506;2023-01-25T06:23:28;100976.88;;;1.95;79.80
62402;BME280;48440;51.224;22.506;2023-01-25T06:26:01;100969.66;;;1.96;80.50
62402;BME280;48440;51.224;22.506;2023-01-25T06:28:31;100973.50;;;1.93;80.65
62402;BME280;48440;51.224;22.506;2023-01-25T06:31:03;100972.66;;;1.93;81.09
62402;BME280;48440;51.224;22.506;2023-01-25T06:33:29;100967.31;;;1.93;80.70
62402;BME280;48440;51.224;22.506;2023-01-25T06:35:59;100974.66;;;1.91;80.55
62402;BME280;48440;51.224;22.506;2023-01-25T06:38:24;100967.31;;;1.93;80.98
62402;BME280;48440;51.224;22.506;2023-01-25T06:40:49;100965.78;;;1.90;80.66
62402;BME280;48440;51.224;22.506;2023-01-25T06:43:15;100963.78;;;1.92;80.68
62402;BME280;48440;51.224;22.506;2023-01-25T06:45:40;100969.00;;;1.94;80.73
62402;BME280;48440;51.224;22.506;2023-01-25T06:48:06;100965.31;;;1.95;80.62
62402;BME280;48440;51.224;22.506;2023-01-25T06:50:31;100959.81;;;1.96;80.17
62402;BME280;48440;51.224;22.506;2023-01-25T06:52:57;100961.31;;;1.99;80.52
62402;BME280;48440;51.224;22.506;2023-01-25T06:55:22;100955.13;;;1.98;80.76
62402;BME280;48440;51.224;22.506;2023-01-25T06:57:48;100951.78;;;1.96;80.40
62402;BME280;48440;51.224;22.506;2023-01-25T07:00:15;100949.63;;;2.00;80.13
62402;BME280;48440;51.224;22.506;2023-01-25T07:02:41;100949.63;;;2.00;80.01
62402;BME280;48440;51.224;22.506;2023-01-25T07:05:08;100946.56;;;1.95;79.47
62402;BME280;48440;51.224;22.506;2023-01-25T07:07:33;100942.22;;;1.94;79.07
62402;BME280;48440;51.224;22.506;2023-01-25T07:09:59;100938.84;;;1.92;79.20
62402;BME280;48440;51.224;22.506;2023-01-25T07:12:28;100945.88;;;1.93;78.83
62402;BME280;48440;51.224;22.506;2023-01-25T07:14:54;100944.38;;;1.90;78.95
62402;BME280;48440;51.224;22.506;2023-01-25T07:17:19;100949.72;;;1.90;78.68
62402;BME280;48440;51.224;22.506;2023-01-25T07:19:45;100942.53;;;1.91;78.86
62402;BME280;48440;51.224;22.506;2023-01-25T07:22:11;100943.38;;;1.91;78.82
62402;BME280;48440;51.224;22.506;2023-01-25T07:24:36;100941.06;;;1.96;78.77
62402;BME280;48440;51.224;22.506;2023-01-25T07:27:02;100939.53;;;1.94;78.52
62402;BME280;48440;51.224;22.506;2023-01-25T07:29:27;100933.34;;;1.93;78.61
62402;BME280;48440;51.224;22.506;2023-01-25T07:31:55;100935.19;;;1.93;78.32
62402;BME280;48440;51.224;22.506;2023-01-25T07:34:20;100936.19;;;1.92;78.83
62402;BME280;48440;51.224;22.506;2023-01-25T07:36:46;100930.81;;;1.92;78.69
62402;BME280;48440;51.224;22.506;2023-01-25T07:39:12;100928.13;;;1.92;77.98
62402;BME280;48440;51.224;22.506;2023-01-25T07:41:40;100931.50;;;1.94;77.74
62402;BME280;48440;51.224;22.506;2023-01-25T07:44:09;100938.00;;;1.91;77.63
62402;BME280;48440;51.224;22.506;2023-01-25T07:46:34;100928.13;;;1.92;77.11
62402;BME280;48440;51.224;22.506;2023-01-25T07:49:02;100926.31;;;1.92;77.72
62402;BME280;48440;51.224;22.506;2023-01-25T07:51:30;100928.28;;;1.90;78.19
62402;BME280;48440;51.224;22.506;2023-01-25T07:54:03;100937.84;;;1.93;77.97
62402;BME280;48440;51.224;22.506;2023-01-25T07:56:31;100936.84;;;1.94;78.33
62402;BME280;48440;51.224;22.506;2023-01-25T07:58:58;100933.19;;;1.95;78.26
62402;BME280;48440;51.224;22.506;2023-01-25T08:01:26;100924.31;;;1.94;78.55
62402;BME280;48440;51.224;22.506;2023-01-25T08:03:52;100924.16;;;1.96;78.34
62402;BME280;48440;51.224;22.506;2023-01-25T08:06:30;100916.97;;;1.96;78.26
62402;BME280;48440;51.224;22.506;2023-01-25T08:09:01;100906.25;;;1.96;77.97
62402;BME280;48440;51.224;22.506;2023-01-25T08:11:29;100909.91;;;1.95;78.05
62402;BME280;48440;51.224;22.506;2023-01-25T08:13:59;100902.56;;;1.97;78.42
62402;BME280;48440;51.224;22.506;2023-01-25T08:16:26;100910.44;;;1.99;77.94
62402;BME280;48440;51.224;22.506;2023-01-25T08:18:55;100917.47;;;2.00;77.96
62402;BME280;48440;51.224;22.506;2023-01-25T08:21:22;100913.97;;;1.99;77.14
62402;BME280;48440;51.224;22.506;2023-01-25T08:23:55;100914.97;;;1.98;77.07
62402;BME280;48440;51.224;22.506;2023-01-25T08:26:22;100902.56;;;1.97;77.18
62402;BME280;48440;51.224;22.506;2023-01-25T08:28:48;100908.59;;;1.99;76.74
62402;BME280;48440;51.224;22.506;2023-01-25T08:31:19;100902.41;;;1.99;77.13
62402;BME280;48440;51.224;22.506;2023-01-25T08:33:45;100891.22;;;2.03;77.15
62402;BME280;48440;51.224;22.506;2023-01-25T08:36:14;100892.06;;;2.04;77.63
62402;BME280;48440;51.224;22.506;2023-01-25T08:38:41;100894.06;;;2.02;77.10
62402;BME280;48440;51.224;22.506;2023-01-25T08:41:07;100890.91;;;2.07;77.18
62402;BME280;48440;51.224;22.506;2023-01-25T08:43:33;100892.75;;;2.06;77.43
62402;BME280;48440;51.224;22.506;2023-01-25T08:45:59;100900.09;;;2.04;77.71
62402;BME280;48440;51.224;22.506;2023-01-25T08:48:25;100901.94;;;2.03;77.83
62402;BME280;48440;51.224;22.506;2023-01-25T08:50:50;100901.78;;;2.05;77.84
62402;BME280;48440;51.224;22.506;2023-01-25T08:53:16;100906.97;;;2.07;77.88
62402;BME280;48440;51.224;22.506;2023-01-25T08:55:42;100910.50;;;2.07;77.38
62402;BME280;48440;51.224;22.506;2023-01-25T08:58:14;100894.22;;;2.09;76.88
62402;BME280;48440;51.224;22.506;2023-01-25T09:00:42;100889.38;;;2.04;76.98
62402;BME280;48440;51.224;22.506;2023-01-25T09:03:08;100898.44;;;2.11;76.97
62402;BME280;48440;51.224;22.506;2023-01-25T09:05:36;100904.78;;;2.10;76.54
62402;BME280;48440;51.224;22.506;2023-01-25T09:08:02;100901.09;;;2.11;76.46
62402;BME280;48440;51.224;22.506;2023-01-25T09:10:28;100893.06;;;2.11;77.13
62402;BME280;48440;51.224;22.506;2023-01-25T09:12:54;100888.56;;;2.12;76.66
62402;BME280;48440;51.224;22.506;2023-01-25T09:15:19;100888.06;;;2.16;76.77
62402;BME280;48440;51.224;22.506;2023-01-25T09:17:49;100889.44;;;2.20;76.91
62402;BME280;48440;51.224;22.506;2023-01-25T09:20:15;100889.94;;;2.24;76.44
62402;BME280;48440;51.224;22.506;2023-01-25T09:22:41;100881.44;;;2.28;76.42
62402;BME280;48440;51.224;22.506;2023-01-25T09:25:07;100871.88;;;2.26;76.57
62402;BME280;48440;51.224;22.506;2023-01-25T09:27:32;100871.88;;;2.26;76.46
62402;BME280;48440;51.224;22.506;2023-01-25T09:29:58;100867.69;;;2.23;76.41
62402;BME280;48440;51.224;22.506;2023-01-25T09:32:23;100869.88;;;2.28;76.16
62402;BME280;48440;51.224;22.506;2023-01-25T09:34:48;100866.19;;;2.29;76.32
62402;BME280;48440;51.224;22.506;2023-01-25T09:37:14;100863.53;;;2.29;75.88
62402;BME280;48440;51.224;22.506;2023-01-25T09:39:39;100868.03;;;2.28;76.04
62402;BME280;48440;51.224;22.506;2023-01-25T09:47:47;100846.09;;;2.25;75.06
62402;BME280;48440;51.224;22.506;2023-01-25T09:50:31;100849.59;;;2.25;75.10
62402;BME280;48440;51.224;22.506;2023-01-25T09:53:40;100847.59;;;2.27;75.23
62402;BME280;48440;51.224;22.506;2023-01-25T09:56:12;100842.41;;;2.26;74.68
62402;BME280;48440;51.224;22.506;2023-01-25T09:58:45;100839.56;;;2.27;74.69
62402;BME280;48440;51.224;22.506;2023-01-25T10:01:27;100831.22;;;2.30;74.24
62402;BME280;48440;51.224;22.506;2023-01-25T10:06:47;100826.16;;;2.35;74.23
62402;BME280;48440;51.224;22.506;2023-01-25T10:11:41;100826.53;;;2.32;72.93
62402;BME280;48440;51.224;22.506;2023-01-25T10:14:15;100830.38;;;2.30;73.30
62402;BME280;48440;51.224;22.506;2023-01-25T10:19:18;100820.16;;;2.25;73.09
62402;BME280;48440;51.224;22.506;2023-01-25T10:22:17;100817.31;;;2.27;74.22
62402;BME280;48440;51.224;22.506;2023-01-25T10:25:10;100820.16;;;2.25;73.87
62402;BME280;48440;51.224;22.506;2023-01-25T10:27:49;100804.06;;;2.25;73.74
62402;BME280;48440;51.224;22.506;2023-01-25T10:30:24;100793.69;;;2.30;73.74
62402;BME280;48440;51.224;22.506;2023-01-25T10:32:52;100800.06;;;2.29;73.83
62402;BME280;48440;51.224;22.506;2023-01-25T10:35:22;100797.53;;;2.28;74.08
62402;BME280;48440;51.224;22.506;2023-01-25T10:37:50;100800.75;;;2.31;74.22
62402;BME280;48440;51.224;22.506;2023-01-25T10:40:22;100799.53;;;2.34;74.08
62402;BME280;48440;51.224;22.506;2023-01-25T10:42:59;100793.88;;;2.29;73.44
62402;BME280;48440;51.224;22.506;2023-01-25T10:45:26;100797.91;;;2.33;73.56
62402;BME280;48440;51.224;22.506;2023-01-25T10:47:57;100794.19;;;2.34;73.60
62402;BME280;48440;51.224;22.506;2023-01-25T10:58:42;100782.47;;;2.27;73.37
62402;BME280;48440;51.224;22.506;2023-01-25T11:01:31;100778.28;;;2.24;74.06
62402;BME280;48440;51.224;22.506;2023-01-25T11:03:58;100782.44;;;2.19;74.02
62402;BME280;48440;51.224;22.506;2023-01-25T11:06:36;100767.72;;;2.15;74.28
62402;BME280;48440;51.224;22.506;2023-01-25T11:09:29;100776.06;;;2.12;74.62
62402;BME280;48440;51.224;22.506;2023-01-25T11:12:15;100779.59;;;2.12;75.34
62402;BME280;48440;51.224;22.506;2023-01-25T11:14:45;100775.22;;;2.11;75.46
62402;BME280;48440;51.224;22.506;2023-01-25T11:17:30;100775.56;;;2.08;75.43
62402;BME280;48440;51.224;22.506;2023-01-25T11:20:18;100765.69;;;2.09;75.54
62402;BME280;48440;51.224;22.506;2023-01-25T11:22:55;100760.84;;;2.04;75.35
62402;BME280;48440;51.224;22.506;2023-01-25T11:25:32;100760.00;;;2.03;75.31
62402;BME280;48440;51.224;22.506;2023-01-25T11:28:22;100752.97;;;2.02;75.67
62402;BME280;48440;51.224;22.506;2023-01-25T11:30:49;100750.97;;;2.04;75.25
62402;BME280;48440;51.224;22.506;2023-01-25T11:33:17;100747.97;;;2.08;75.18
62402;BME280;48440;51.224;22.506;2023-01-25T11:38:43;100736.75;;;2.04;75.10
62402;BME280;48440;51.224;22.506;2023-01-25T12:06:49;100695.25;;;2.24;75.58
62402;BME280;48440;51.224;22.506;2023-01-25T12:12:17;100692.72;;;2.23;75.58
62402;BME280;48440;51.224;22.506;2023-01-25T12:23:34;100670.63;;;2.29;75.59
62402;BME280;48440;51.224;22.506;2023-01-25T12:28:53;100661.41;;;2.23;75.78
62402;BME280;48440;51.224;22.506;2023-01-25T12:31:39;100660.41;;;2.24;75.59
62402;BME280;48440;51.224;22.506;2023-01-25T12:34:13;100663.09;;;2.24;75.57
62402;BME280;48440;51.224;22.506;2023-01-25T12:36:48;100655.72;;;2.26;75.98
62402;BME280;48440;51.224;22.506;2023-01-25T12:39:27;100649.72;;;2.32;75.51
62402;BME280;48440;51.224;22.506;2023-01-25T12:45:01;100646.69;;;2.27;75.30
62402;BME280;48440;51.224;22.506;2023-01-25T12:47:34;100636.97;;;2.26;75.31
62402;BME280;48440;51.224;22.506;2023-01-25T12:50:15;100646.84;;;2.26;75.10
62402;BME280;48440;51.224;22.506;2023-01-25T12:52:46;100641.16;;;2.29;74.92
62402;BME280;48440;51.224;22.506;2023-01-25T12:55:14;100644.19;;;2.26;74.84
62402;BME280;48440;51.224;22.506;2023-01-25T13:00:24;100634.31;;;2.26;74.23
62402;BME280;48440;51.224;22.506;2023-01-25T13:05:54;100630.78;;;2.26;74.52
62402;BME280;48440;51.224;22.506;2023-01-25T13:08:38;100621.75;;;2.27;74.47
62402;BME280;48440;51.224;22.506;2023-01-25T13:11:17;100630.13;;;2.32;74.32
62402;BME280;48440;51.224;22.506;2023-01-25T13:13:45;100631.78;;;2.33;74.71
62402;BME280;48440;51.224;22.506;2023-01-25T13:16:32;100630.28;;;2.30;74.66
62402;BME280;48440;51.224;22.506;2023-01-25T13:18:59;100624.25;;;2.28;74.72
62402;BME280;48440;51.224;22.506;2023-01-25T13:21:40;100623.75;;;2.33;74.88
62402;BME280;48440;51.224;22.506;2023-01-25T13:24:25;100619.41;;;2.32;74.49
62402;BME280;48440;51.224;22.506;2023-01-25T13:35:00;100614.88;;;2.32;73.86
62402;BME280;48440;51.224;22.506;2023-01-25T13:37:30;100608.53;;;2.33;73.97
62402;BME280;48440;51.224;22.506;2023-01-25T13:40:04;100609.84;;;2.29;74.12
62402;BME280;48440;51.224;22.506;2023-01-25T13:42:32;100602.81;;;2.28;73.80
62402;BME280;48440;51.224;22.506;2023-01-25T13:45:01;100594.13;;;2.26;73.81
62402;BME280;48440;51.224;22.506;2023-01-25T13:47:31;100594.28;;;2.25;73.49
62402;BME280;48440;51.224;22.506;2023-01-25T13:55:24;100593.63;;;2.23;74.22
62402;BME280;48440;51.224;22.506;2023-01-25T13:57:50;100588.25;;;2.23;74.76
62402;BME280;48440;51.224;22.506;2023-01-25T14:00:16;100586.25;;;2.25;74.92
62402;BME280;48440;51.224;22.506;2023-01-25T14:02:45;100575.22;;;2.20;74.79
62402;BME280;48440;51.224;22.506;2023-01-25T14:05:20;100581.22;;;2.14;74.12
62402;BME280;48440;51.224;22.506;2023-01-25T14:07:48;100577.56;;;2.15;74.54
62402;BME280;48440;51.224;22.506;2023-01-25T14:10:17;100586.09;;;2.18;73.96
62402;BME280;48440;51.224;22.506;2023-01-25T14:12:47;100591.28;;;2.12;73.48
62402;BME280;48440;51.224;22.506;2023-01-25T14:17:41;100579.44;;;2.06;73.79
62402;BME280;48440;51.224;22.506;2023-01-25T14:20:25;100575.75;;;2.07;74.17
62402;BME280;48440;51.224;22.506;2023-01-25T14:22:51;100576.41;;;2.01;73.83
62402;BME280;48440;51.224;22.506;2023-01-25T14:25:18;100573.72;;;2.01;74.44
62402;BME280;48440;51.224;22.506;2023-01-25T14:27:56;100564.03;;;2.00;74.52
62402;BME280;48440;51.224;22.506;2023-01-25T14:30:28;100564.69;;;2.02;74.50
62402;BME280;48440;51.224;22.506;2023-01-25T14:33:15;100565.69;;;2.01;74.29
62402;BME280;48440;51.224;22.506;2023-01-25T14:35:43;100559.69;;;2.07;74.56
62402;BME280;48440;51.224;22.506;2023-01-25T14:40:46;100550.97;;;2.05;74.47
62402;BME280;48440;51.224;22.506;2023-01-25T14:43:13;100542.94;;;2.05;73.99
62402;BME280;48440;51.224;22.506;2023-01-25T14:45:39;100543.94;;;2.04;74.17
62402;BME280;48440;51.224;22.506;2023-01-25T14:48:30;100538.41;;;1.97;73.85
62402;BME280;48440;51.224;22.506;2023-01-25T14:50:50;100525.03;;;1.97;73.96